createdAt,value
2023-10-06T00:04:39.723Z,101421.06
2023-10-06T00:09:44.695Z,101422.63
2023-10-06T00:14:49.850Z,101429.63
2023-10-06T00:19:53.467Z,101428.16
2023-10-06T00:25:01.133Z,101427.19
2023-10-06T00:30:12.654Z,101424.84
2023-10-06T00:35:18.174Z,101424.50
2023-10-06T00:40:26.140Z,101428.97
2023-10-06T00:45:31.501Z,101425.41
2023-10-06T00:50:34.401Z,101425.09
2023-10-06T00:55:36.647Z,101425.78
2023-10-06T01:00:39.438Z,101408.09
2023-10-06T01:05:45.985Z,101404.91
2023-10-06T01:10:52.346Z,101398.28
2023-10-06T01:15:57.569Z,101399.81
2023-10-06T01:21:10.671Z,101399.13
2023-10-06T01:26:14.193Z,101399.13
2023-10-06T01:31:15.971Z,101408.13
2023-10-06T01:36:23.125Z,101407.47
2023-10-06T01:41:27.707Z,101401.00
2023-10-06T01:46:30.226Z,101392.16
2023-10-06T01:51:39.962Z,101389.78
2023-10-06T01:56:43.376Z,101394.19
2023-10-06T02:01:46.020Z,101395.56
2023-10-06T02:06:49.419Z,101387.88
2023-10-06T02:11:51.055Z,101397.38
2023-10-06T02:16:56.642Z,101384.16
2023-10-06T02:21:58.427Z,101379.41
2023-10-06T02:27:02.236Z,101389.06
2023-10-06T02:32:10.149Z,101381.91
2023-10-06T02:37:11.777Z,101386.66
2023-10-06T02:42:15.725Z,101379.03
2023-10-06T02:47:18.942Z,101385.13
2023-10-06T02:52:23.836Z,101379.16
2023-10-06T02:57:26.815Z,101376.44
2023-10-06T03:02:29.403Z,101389.59
2023-10-06T03:07:31.601Z,101391.63
2023-10-06T03:12:33.378Z,101380.94
2023-10-06T03:17:35.529Z,101384.19
2023-10-06T03:22:39.353Z,101375.00
2023-10-06T03:27:42.481Z,101374.97
2023-10-06T03:32:53.297Z,101380.56
2023-10-06T03:38:08.889Z,101386.00
2023-10-06T03:43:14.160Z,101392.44
2023-10-06T03:48:15.909Z,101380.69
2023-10-06T03:53:18.806Z,101384.25
2023-10-06T03:58:20.683Z,101383.72
2023-10-06T04:03:22.881Z,101377.94
2023-10-06T04:08:24.547Z,101374.53
2023-10-06T04:13:27.291Z,101374.88
2023-10-06T04:18:28.888Z,101361.88
2023-10-06T04:23:31.296Z,101365.81
2023-10-06T04:28:32.901Z,101372.78
2023-10-06T04:33:34.683Z,101377.25
2023-10-06T04:38:40.990Z,101375.25
2023-10-06T04:43:45.804Z,101370.66
2023-10-06T04:48:49.600Z,101367.13
2023-10-06T04:53:51.357Z,101359.66
2023-10-06T04:58:55.037Z,101358.16
2023-10-06T05:03:56.874Z,101367.78
2023-10-06T05:08:58.536Z,101370.50
2023-10-06T05:14:00.243Z,101373.94
2023-10-06T05:19:04.517Z,101371.41
2023-10-06T05:24:09.761Z,101370.56
2023-10-06T05:29:15.597Z,101382.47
2023-10-06T05:34:18.775Z,101389.97
2023-10-06T05:39:20.486Z,101386.22
2023-10-06T05:44:22.679Z,101396.41
2023-10-06T05:49:24.334Z,101405.88
2023-10-06T05:54:28.064Z,101419.97
2023-10-06T05:59:30.579Z,101415.53
2023-10-06T06:04:32.317Z,101418.91
2023-10-06T06:09:34.930Z,101441.16
2023-10-06T06:14:36.705Z,101445.47
2023-10-06T06:19:40.162Z,101454.22
2023-10-06T06:24:42.131Z,101455.59
2023-10-06T06:29:47.450Z,101443.53
2023-10-06T06:34:49.257Z,101445.34
2023-10-06T06:39:50.903Z,101453.78
2023-10-06T06:44:53.208Z,101454.19
2023-10-06T06:49:56.144Z,101442.94
2023-10-06T06:54:57.793Z,101435.03
2023-10-06T07:00:09.861Z,101438.16
2023-10-06T07:05:12.895Z,101445.91
2023-10-06T07:10:23.871Z,101443.81
2023-10-06T07:15:29.163Z,101442.19
2023-10-06T07:20:31.767Z,101447.19
2023-10-06T07:25:33.507Z,101449.19
2023-10-06T07:30:45.218Z,101470.63
2023-10-06T07:36:45.385Z,101479.06
2023-10-06T07:48:47.215Z,101463.63
2023-10-06T08:22:00.584Z,101442.03
2023-10-06T08:27:03.603Z,101452.72
2023-10-06T08:32:07.730Z,101454.94
2023-10-06T08:37:12.381Z,101453.56
2023-10-06T08:42:18.869Z,101467.16
2023-10-06T08:47:27.920Z,101448.59
2023-10-06T08:52:34.053Z,101439.28
2023-10-06T08:57:35.855Z,101439.00
2023-10-06T09:02:37.522Z,101433.63
2023-10-06T09:07:39.354Z,101429.22
2023-10-06T09:12:43.658Z,101423.56
2023-10-06T09:17:46.523Z,101407.13
2023-10-06T09:22:50.802Z,101410.38
2023-10-06T09:28:04.611Z,101402.84
2023-10-06T09:33:06.397Z,101395.28
2023-10-06T09:38:17.319Z,101387.56
2023-10-06T09:43:22.563Z,101387.56
2023-10-06T09:48:27.326Z,101373.34
2023-10-06T09:53:31.621Z,101367.69
2023-10-06T09:58:34.629Z,101355.25
2023-10-06T10:03:38.884Z,101355.09
2023-10-06T10:08:42.592Z,101353.72
2023-10-06T10:14:27.980Z,101345.25
2023-10-06T10:19:30.122Z,101334.19
2023-10-06T10:25:09.825Z,101321.56
2023-10-06T10:29:57.411Z,101323.06
2023-10-06T10:35:18.150Z,101309.78
2023-10-06T10:40:49.919Z,101304.13
2023-10-06T10:45:54.864Z,101294.44
2023-10-06T10:51:12.075Z,101291.78
2023-10-06T10:56:27.827Z,101300.59
2023-10-06T11:01:52.656Z,101300.81
2023-10-06T11:06:59.343Z,101269.09
2023-10-06T11:12:24.764Z,101262.13
2023-10-06T11:17:33.725Z,101257.56
2023-10-06T11:22:35.655Z,101257.63
2023-10-06T11:27:39.329Z,101244.94
2023-10-06T11:32:44.687Z,101232.75
2023-10-06T11:37:46.393Z,101242.81
2023-10-06T11:42:48.061Z,101234.00
2023-10-06T11:47:50.233Z,101226.75
2023-10-06T11:52:52.893Z,101222.56
2023-10-06T11:57:55.454Z,101215.38
2023-10-06T12:02:57.281Z,101201.81
2023-10-06T12:08:06.585Z,101202.28
2023-10-06T12:13:11.624Z,101193.44
2023-10-06T12:18:15.315Z,101181.41
2023-10-06T12:23:17.079Z,101167.44
2023-10-06T12:28:18.908Z,101160.66
2023-10-06T12:33:20.650Z,101155.22
2023-10-06T12:38:23.992Z,101150.66
2023-10-06T12:43:25.968Z,101145.59
2023-10-06T12:48:27.529Z,101141.88
2023-10-06T12:53:29.664Z,101141.72
2023-10-06T12:58:31.683Z,101130.13
2023-10-06T13:03:34.358Z,101119.78
2023-10-06T13:09:12.710Z,101108.34
2023-10-06T13:14:19.802Z,101112.53
2023-10-06T13:19:21.713Z,101122.94
2023-10-06T13:24:24.914Z,101110.63
2023-10-06T13:29:26.704Z,101105.28
2023-10-06T13:34:28.305Z,101092.47
2023-10-06T13:39:29.908Z,101081.78
2023-10-06T13:44:32.604Z,101062.66
2023-10-06T13:49:34.286Z,101062.94
2023-10-06T13:54:36.112Z,101071.63
2023-10-06T13:59:43.500Z,101073.59
2023-10-06T14:04:45.139Z,101059.13
2023-10-06T14:09:46.749Z,101051.84
2023-10-06T14:14:48.411Z,101043.47
2023-10-06T14:19:51.295Z,101035.63
2023-10-06T14:24:54.292Z,101040.03
2023-10-06T14:29:55.986Z,101027.72
2023-10-06T14:35:12.970Z,101043.75
2023-10-06T14:40:33.219Z,101037.88
2023-10-06T14:45:53.847Z,101028.44
2023-10-06T14:50:59.493Z,101028.16
2023-10-06T14:56:02.073Z,101021.50
2023-10-06T15:01:04.092Z,101024.81
2023-10-06T15:06:06.162Z,101024.72
2023-10-06T15:11:13.100Z,101019.63
2023-10-06T15:16:20.188Z,101010.91
2023-10-06T15:21:24.816Z,101024.41
2023-10-06T15:26:27.167Z,101024.75
2023-10-06T15:31:29.885Z,101018.50
2023-10-06T15:36:31.810Z,101021.13
2023-10-06T15:41:33.475Z,101035.84
2023-10-06T15:46:35.685Z,101042.44
2023-10-06T15:51:37.296Z,101056.97
2023-10-06T15:56:42.139Z,101062.91
2023-10-06T16:01:45.955Z,101069.34
2023-10-06T16:06:48.762Z,101068.59
2023-10-06T16:11:50.563Z,101071.09
2023-10-06T16:16:53.496Z,101075.53
2023-10-06T16:21:56.421Z,101080.41
2023-10-06T16:26:58.877Z,101088.38
2023-10-06T16:32:01.338Z,101085.44
2023-10-06T16:37:04.143Z,101088.03
2023-10-06T16:42:06.713Z,101091.69
2023-10-06T16:47:08.415Z,101084.75
2023-10-06T16:52:10.282Z,101096.06
2023-10-06T16:57:11.850Z,101095.50
2023-10-06T17:02:14.352Z,101098.78
2023-10-06T17:07:16.000Z,101094.81
2023-10-06T17:12:17.870Z,101102.25
2023-10-06T17:17:26.489Z,101113.09
2023-10-06T17:22:28.147Z,101126.53
2023-10-06T17:27:29.690Z,101129.41
2023-10-06T17:32:34.281Z,101132.41
2023-10-06T17:37:36.446Z,101137.13
2023-10-06T17:42:38.683Z,101130.38
2023-10-06T17:47:40.408Z,101139.47
2023-10-06T17:52:42.159Z,101137.53
2023-10-06T17:57:43.779Z,101137.69
2023-10-06T18:02:45.512Z,101136.63
2023-10-06T18:07:47.209Z,101137.47
2023-10-06T18:12:49.869Z,101131.06
2023-10-06T18:17:52.731Z,101155.81
2023-10-06T18:22:54.830Z,101166.66
2023-10-06T18:27:56.548Z,101175.50
2023-10-06T18:32:58.328Z,101178.97
2023-10-06T18:37:59.896Z,101194.63
2023-10-06T18:43:01.749Z,101193.88
2023-10-06T18:48:05.467Z,101205.19
2023-10-06T18:53:07.622Z,101208.66
2023-10-06T18:58:10.341Z,101199.75
2023-10-06T19:03:12.891Z,101198.81
2023-10-06T19:08:15.914Z,101194.34
2023-10-06T19:13:18.460Z,101201.47
2023-10-06T19:18:20.052Z,101199.47
2023-10-06T19:23:21.607Z,101201.97
2023-10-06T19:28:24.429Z,101203.13
2023-10-06T19:33:26.638Z,101199.22
2023-10-06T19:38:28.616Z,101211.28
2023-10-06T19:43:32.198Z,101218.09
2023-10-06T19:48:34.274Z,101216.88
2023-10-06T19:53:36.639Z,101215.94
2023-10-06T19:58:38.247Z,101219.78
2023-10-06T20:03:44.108Z,101217.81
2023-10-06T20:08:47.937Z,101216.69
2023-10-06T20:13:50.732Z,101207.03
2023-10-06T20:18:52.455Z,101204.00
2023-10-06T20:23:54.193Z,101200.19
2023-10-06T20:28:56.339Z,101196.78
2023-10-06T20:33:57.975Z,101196.09
2023-10-06T20:38:59.942Z,101190.66
2023-10-06T20:44:08.876Z,101191.41
2023-10-06T20:49:14.876Z,101203.81
2023-10-06T20:54:17.616Z,101198.63
2023-10-06T20:59:19.176Z,101195.50
2023-10-06T21:04:20.778Z,101203.09
2023-10-06T21:09:22.620Z,101200.06
2023-10-06T21:14:24.223Z,101206.25
2023-10-06T21:19:25.877Z,101214.50
2023-10-06T21:24:27.578Z,101212.69
2023-10-06T21:29:30.116Z,101200.66
2023-10-06T21:34:31.735Z,101199.81
2023-10-06T21:39:33.425Z,101198.47
2023-10-06T21:44:36.318Z,101200.72
2023-10-06T21:49:40.325Z,101200.03
2023-10-06T21:54:43.685Z,101207.94
2023-10-06T21:59:45.518Z,101200.59
2023-10-06T22:04:47.176Z,101211.78
2023-10-06T22:09:48.809Z,101210.75
2023-10-06T22:14:50.410Z,101204.16
2023-10-06T22:19:52.042Z,101207.25
2023-10-06T22:24:54.280Z,101204.88
2023-10-06T22:29:59.054Z,101198.78
2023-10-06T22:35:00.880Z,101203.56
2023-10-06T22:40:02.555Z,101198.50
2023-10-06T22:45:04.775Z,101206.72
2023-10-06T22:50:07.104Z,101205.19
2023-10-06T22:55:10.031Z,101216.44
2023-10-06T23:00:17.865Z,101213.53
2023-10-06T23:05:19.640Z,101209.47
2023-10-06T23:10:23.927Z,101218.19
2023-10-06T23:15:32.801Z,101216.34
2023-10-06T23:20:42.992Z,101206.47
2023-10-06T23:25:56.588Z,101216.69
2023-10-06T23:30:59.327Z,101210.97
2023-10-06T23:36:01.442Z,101221.69
2023-10-06T23:41:08.910Z,101215.44
2023-10-06T23:46:16.297Z,101229.72
2023-10-06T23:51:20.071Z,101234.84
2023-10-06T23:56:25.714Z,101235.00
